createdAt,value
2018-10-16T00:02:21.319Z,30.13
2018-10-16T00:04:49.073Z,24.57
2018-10-16T00:07:16.813Z,25.97
2018-10-16T00:09:44.577Z,26.20
2018-10-16T00:12:12.296Z,22.30
2018-10-16T00:14:39.989Z,20.53
2018-10-16T00:17:07.637Z,14.97
2018-10-16T00:19:35.323Z,18.33
2018-10-16T00:22:03.174Z,25.80
2018-10-16T00:24:30.899Z,27.63
2018-10-16T00:26:58.641Z,26.10
2018-10-16T00:29:26.325Z,25.00
2018-10-16T00:31:54.084Z,28.13
2018-10-16T00:34:21.805Z,24.23
2018-10-16T00:36:49.497Z,29.00
2018-10-16T00:39:17.233Z,23.60
2018-10-16T00:41:50.813Z,24.40
2018-10-16T00:44:18.473Z,25.77
2018-10-16T00:46:46.245Z,23.80
2018-10-16T00:49:14.040Z,21.57
2018-10-16T00:51:41.721Z,21.40
2018-10-16T00:54:09.582Z,21.80
2018-10-16T00:56:39.454Z,29.60
2018-10-16T00:59:07.369Z,23.70
2018-10-16T01:01:35.293Z,22.03
2018-10-16T01:04:04.996Z,22.77
2018-10-16T01:06:33.654Z,27.20
2018-10-16T01:09:01.470Z,24.77
2018-10-16T01:11:29.187Z,22.30
2018-10-16T01:13:57.472Z,25.57
2018-10-16T01:16:25.324Z,24.77
2018-10-16T01:18:53.060Z,23.90
2018-10-16T01:21:21.928Z,22.93
2018-10-16T01:23:49.674Z,22.50
2018-10-16T01:26:17.417Z,22.20
2018-10-16T01:28:45.446Z,26.37
2018-10-16T01:31:13.157Z,23.93
2018-10-16T01:33:40.872Z,22.53
2018-10-16T01:36:10.120Z,18.20
2018-10-16T01:38:37.936Z,22.73
2018-10-16T01:41:06.358Z,22.43
2018-10-16T01:43:34.040Z,23.17
2018-10-16T01:46:01.869Z,21.13
2018-10-16T01:48:29.561Z,22.57
2018-10-16T01:50:57.301Z,25.07
2018-10-16T01:53:25.020Z,23.23
2018-10-16T01:55:52.866Z,33.37
2018-10-16T01:58:20.701Z,23.33
2018-10-16T02:00:48.440Z,16.20
2018-10-16T02:03:16.237Z,21.50
2018-10-16T02:05:43.995Z,20.27
2018-10-16T02:08:11.770Z,20.10
2018-10-16T02:10:39.489Z,12.30
2018-10-16T02:13:07.253Z,12.40
2018-10-16T02:15:35.049Z,23.03
2018-10-16T02:18:02.705Z,20.07
2018-10-16T02:20:30.400Z,16.10
2018-10-16T02:22:58.122Z,21.17
2018-10-16T02:25:25.761Z,19.67
2018-10-16T02:27:53.476Z,22.87
2018-10-16T02:30:21.161Z,22.43
2018-10-16T02:32:48.987Z,18.43
2018-10-16T02:35:16.656Z,21.30
2018-10-16T02:37:44.393Z,25.87
2018-10-16T02:40:11.910Z,23.37
2018-10-16T02:42:40.118Z,22.10
2018-10-16T02:45:09.295Z,20.73
2018-10-16T02:47:37.162Z,24.23
2018-10-16T02:50:05.180Z,18.03
2018-10-16T02:52:32.929Z,18.47
2018-10-16T02:55:00.682Z,23.50
2018-10-16T02:57:28.489Z,14.50
2018-10-16T02:59:56.393Z,24.23
2018-10-16T03:02:24.389Z,23.67
2018-10-16T03:04:52.096Z,25.40
2018-10-16T03:07:19.791Z,21.47
2018-10-16T03:09:47.502Z,24.47
2018-10-16T03:12:15.197Z,23.70
2018-10-16T03:14:42.863Z,25.83
2018-10-16T03:17:10.613Z,22.03
2018-10-16T03:19:38.456Z,14.17
2018-10-16T03:22:06.542Z,19.77
2018-10-16T03:24:34.221Z,23.63
2018-10-16T03:27:01.997Z,21.50
2018-10-16T03:29:29.688Z,24.00
2018-10-16T03:31:57.413Z,27.03
2018-10-16T03:34:25.103Z,27.33
2018-10-16T03:36:52.868Z,25.93
2018-10-16T03:39:20.583Z,28.43
2018-10-16T03:41:48.385Z,22.20
2018-10-16T03:44:16.014Z,30.53
2018-10-16T03:46:43.689Z,31.40
2018-10-16T03:49:11.402Z,32.80
2018-10-16T03:51:39.880Z,32.57
2018-10-16T03:54:08.165Z,32.10
2018-10-16T03:56:35.849Z,28.50
2018-10-16T03:59:04.117Z,27.40
2018-10-16T04:01:31.862Z,29.60
2018-10-16T04:03:59.601Z,25.50
2018-10-16T04:06:34.104Z,26.90
2018-10-16T04:09:01.789Z,25.17
2018-10-16T04:11:29.506Z,31.00
2018-10-16T04:13:57.254Z,23.53
2018-10-16T04:16:24.954Z,24.77
2018-10-16T04:18:55.951Z,33.50
2018-10-16T04:21:28.333Z,39.50
2018-10-16T04:23:56.354Z,23.67
2018-10-16T04:26:24.081Z,35.37
2018-10-16T04:28:51.765Z,33.97
2018-10-16T04:31:19.511Z,29.23
2018-10-16T04:33:47.261Z,30.07
2018-10-16T04:36:15.025Z,22.70
2018-10-16T04:38:42.742Z,17.60
2018-10-16T04:41:10.516Z,22.70
2018-10-16T04:43:38.234Z,13.33
2018-10-16T04:46:05.901Z,16.10
2018-10-16T04:48:39.699Z,20.80
2018-10-16T04:51:15.909Z,24.33
2018-10-16T04:53:43.973Z,25.90
2018-10-16T04:56:11.665Z,27.10
2018-10-16T04:58:39.437Z,24.17
2018-10-16T05:01:07.276Z,24.23
2018-10-16T05:03:35.028Z,25.40
2018-10-16T05:06:03.000Z,26.73
2018-10-16T05:08:30.643Z,25.17
2018-10-16T05:10:58.328Z,27.27
2018-10-16T05:13:26.029Z,26.90
2018-10-16T05:15:54.203Z,24.93
2018-10-16T05:18:21.917Z,28.63
2018-10-16T05:20:49.662Z,25.67
2018-10-16T05:23:17.376Z,27.43
2018-10-16T05:25:45.125Z,27.33
2018-10-16T05:28:12.853Z,16.30
2018-10-16T05:30:40.502Z,24.70
2018-10-16T05:33:08.130Z,23.20
2018-10-16T05:35:35.859Z,17.57
2018-10-16T05:38:03.884Z,17.53
2018-10-16T05:40:31.585Z,26.17
2018-10-16T05:42:59.261Z,29.93
2018-10-16T05:45:28.475Z,38.50
2018-10-16T05:47:56.225Z,40.93
2018-10-16T05:50:23.893Z,34.17
2018-10-16T05:52:51.583Z,37.53
2018-10-16T05:55:19.241Z,33.77
2018-10-16T05:57:46.955Z,29.10
2018-10-16T06:00:39.825Z,25.87
2018-10-16T06:03:07.560Z,31.37
2018-10-16T06:05:35.608Z,33.03
2018-10-16T06:08:03.532Z,29.70
2018-10-16T06:10:31.286Z,30.00
2018-10-16T06:12:58.948Z,36.77
2018-10-16T06:15:26.670Z,38.90
2018-10-16T06:17:54.413Z,33.63
2018-10-16T06:20:22.187Z,58.10
2018-10-16T06:22:49.925Z,46.27
2018-10-16T06:25:17.608Z,44.40
2018-10-16T06:27:45.433Z,40.17
2018-10-16T06:30:13.237Z,32.90
2018-10-16T06:32:40.967Z,35.63
2018-10-16T06:35:09.800Z,37.17
2018-10-16T06:37:37.673Z,33.17
2018-10-16T06:40:06.777Z,33.17
2018-10-16T06:42:34.748Z,39.70
2018-10-16T06:45:02.460Z,35.90
2018-10-16T06:47:30.307Z,35.20
2018-10-16T06:49:57.915Z,32.07
2018-10-16T06:52:25.649Z,34.03
2018-10-16T06:54:53.420Z,33.73
2018-10-16T06:57:21.134Z,30.37
2018-10-16T06:59:48.796Z,29.30
2018-10-16T07:02:16.489Z,33.77
2018-10-16T07:04:44.792Z,36.13
2018-10-16T07:07:12.512Z,46.83
2018-10-16T07:09:40.441Z,48.97
2018-10-16T07:12:09.104Z,40.47
2018-10-16T07:14:36.973Z,35.87
2018-10-16T07:17:04.845Z,33.60
2018-10-16T07:19:32.541Z,29.93
2018-10-16T07:22:00.685Z,31.70
2018-10-16T07:24:28.425Z,25.97
2018-10-16T07:26:56.091Z,24.47
2018-10-16T07:29:23.790Z,25.67
2018-10-16T07:31:51.523Z,24.63
2018-10-16T07:34:20.493Z,29.90
2018-10-16T07:36:48.129Z,28.93
2018-10-16T07:39:15.849Z,25.03
2018-10-16T07:41:43.536Z,24.67
2018-10-16T07:44:11.313Z,27.17
2018-10-16T07:46:39.010Z,21.23
2018-10-16T07:49:07.693Z,23.00
2018-10-16T07:51:35.705Z,20.80
2018-10-16T07:54:03.901Z,23.63
2018-10-16T07:56:31.573Z,21.47
2018-10-16T07:58:59.265Z,25.93
2018-10-16T08:01:27.325Z,22.53
2018-10-16T08:03:55.006Z,23.93
2018-10-16T08:06:22.721Z,24.83
2018-10-16T08:08:50.477Z,20.60
2018-10-16T08:11:18.137Z,19.57
2018-10-16T08:13:46.015Z,22.93
2018-10-16T08:16:13.761Z,22.93
2018-10-16T08:18:41.550Z,25.00
2018-10-16T08:21:09.241Z,23.80
2018-10-16T08:23:36.989Z,22.27
2018-10-16T08:26:06.448Z,21.70
2018-10-16T08:28:34.181Z,23.03
2018-10-16T08:31:02.213Z,17.77
2018-10-16T08:33:30.125Z,21.57
2018-10-16T08:35:57.938Z,18.50
2018-10-16T08:39:16.971Z,20.97
2018-10-16T08:44:10.617Z,19.90
2018-10-16T08:46:55.865Z,19.37
2018-10-16T08:49:40.873Z,21.03
2018-10-16T08:52:08.597Z,18.87
2018-10-16T08:54:36.306Z,21.93
2018-10-16T08:57:04.269Z,17.60
2018-10-16T08:59:31.978Z,18.47
2018-10-16T09:02:00.265Z,19.77
2018-10-16T09:04:27.954Z,22.40
2018-10-16T09:06:55.661Z,19.93
2018-10-16T09:09:23.321Z,21.03
2018-10-16T09:11:51.054Z,24.33
2018-10-16T09:14:18.825Z,18.03
2018-10-16T09:16:46.497Z,19.93
2018-10-16T09:19:14.267Z,27.07
2018-10-16T09:21:41.929Z,18.33
2018-10-16T09:24:09.560Z,22.97
2018-10-16T09:26:37.240Z,21.13
2018-10-16T09:29:05.110Z,21.70
2018-10-16T09:31:32.797Z,22.77
2018-10-16T09:34:00.549Z,25.73
2018-10-16T09:36:28.270Z,23.33
2018-10-16T09:38:55.977Z,22.67
2018-10-16T09:41:23.659Z,21.87
2018-10-16T09:43:51.362Z,26.17
2018-10-16T09:46:19.127Z,19.23
2018-10-16T09:48:46.820Z,21.23
2018-10-16T09:51:14.458Z,23.43
2018-10-16T09:53:42.192Z,20.70
2018-10-16T09:56:09.873Z,20.13
2018-10-16T09:58:37.606Z,19.70
2018-10-16T10:01:11.089Z,18.90
2018-10-16T10:03:38.772Z,21.77
2018-10-16T10:06:06.557Z,28.43
2018-10-16T10:08:34.275Z,19.33
2018-10-16T10:11:02.025Z,20.00
2018-10-16T10:13:29.709Z,20.90
2018-10-16T10:15:57.448Z,22.70
2018-10-16T10:18:25.134Z,19.10
2018-10-16T10:20:52.766Z,20.17
2018-10-16T10:23:20.537Z,16.27
2018-10-16T10:25:52.246Z,18.67
2018-10-16T10:28:20.068Z,17.90
2018-10-16T10:30:47.786Z,19.50
2018-10-16T10:33:15.540Z,19.63
2018-10-16T10:35:43.277Z,14.70
2018-10-16T10:38:11.045Z,15.50
2018-10-16T10:40:38.785Z,17.50
2018-10-16T10:43:06.590Z,16.03
2018-10-16T10:45:34.332Z,20.13
2018-10-16T10:48:04.020Z,17.80
2018-10-16T10:50:31.897Z,14.17
2018-10-16T10:52:59.404Z,14.80
2018-10-16T10:55:27.099Z,17.17
2018-10-16T10:57:54.866Z,17.27
2018-10-16T11:00:22.550Z,15.73
2018-10-16T11:02:50.285Z,16.03
2018-10-16T11:05:17.977Z,15.90
2018-10-16T11:07:45.696Z,17.37
2018-10-16T11:10:13.873Z,14.53
2018-10-16T11:12:42.684Z,21.30
2018-10-16T11:15:10.430Z,15.37
2018-10-16T11:17:38.599Z,19.27
2018-10-16T11:20:08.320Z,15.50
2018-10-16T11:22:36.323Z,15.03
2018-10-16T11:25:05.630Z,15.57
2018-10-16T11:27:33.350Z,12.03
2018-10-16T11:30:03.406Z,12.37
2018-10-16T11:32:31.101Z,12.40
2018-10-16T11:34:58.732Z,11.53
2018-10-16T11:37:26.925Z,10.80
2018-10-16T11:39:55.233Z,10.87
2018-10-16T11:42:24.520Z,12.47
2018-10-16T11:44:52.240Z,13.53
2018-10-16T11:47:19.933Z,10.50
2018-10-16T11:49:47.702Z,9.57
2018-10-16T11:52:15.489Z,10.40
2018-10-16T11:54:43.041Z,10.63
2018-10-16T11:57:10.709Z,12.70
2018-10-16T11:59:38.437Z,8.40
2018-10-16T12:02:06.167Z,11.03
2018-10-16T12:04:33.794Z,10.23
2018-10-16T12:07:01.683Z,7.23
2018-10-16T12:09:29.277Z,7.70
2018-10-16T12:11:56.957Z,7.43
2018-10-16T12:14:26.021Z,7.53
2018-10-16T12:17:00.454Z,9.37
2018-10-16T12:19:33.193Z,9.40
2018-10-16T12:22:00.869Z,11.13
2018-10-16T12:24:28.584Z,6.57
2018-10-16T12:26:56.292Z,8.43
2018-10-16T12:29:24.040Z,10.27
2018-10-16T12:31:53.001Z,7.77
2018-10-16T12:34:21.660Z,8.63
2018-10-16T12:36:49.389Z,7.73
2018-10-16T12:39:17.100Z,6.63
2018-10-16T12:41:45.760Z,9.10
2018-10-16T12:44:13.456Z,11.43
2018-10-16T12:46:41.187Z,8.83
2018-10-16T12:49:08.891Z,6.27
2018-10-16T12:51:36.597Z,9.07
2018-10-16T12:54:04.653Z,8.03
2018-10-16T12:56:35.693Z,7.80
2018-10-16T12:59:03.711Z,8.20
2018-10-16T13:01:31.425Z,6.93
2018-10-16T13:03:59.041Z,7.13
2018-10-16T13:06:26.792Z,7.90
2018-10-16T13:08:55.565Z,6.27
2018-10-16T13:11:23.297Z,9.67
2018-10-16T13:13:51.220Z,11.30
2018-10-16T13:16:19.288Z,8.57
2018-10-16T13:18:47.061Z,9.37
2018-10-16T13:21:16.309Z,6.03
2018-10-16T13:23:43.971Z,6.97
2018-10-16T13:26:14.713Z,8.07
2018-10-16T13:28:42.418Z,6.10
2018-10-16T13:31:10.096Z,10.87
2018-10-16T13:33:37.933Z,8.47
2018-10-16T13:36:05.704Z,5.77
2018-10-16T13:38:33.448Z,10.27
2018-10-16T13:41:01.141Z,6.17
2018-10-16T13:43:28.931Z,7.67
2018-10-16T13:45:56.713Z,5.90
2018-10-16T13:48:24.375Z,5.93
2018-10-16T13:50:52.116Z,5.77
2018-10-16T13:53:20.849Z,5.00
2018-10-16T13:55:48.509Z,5.63
2018-10-16T13:58:16.230Z,6.17
2018-10-16T14:00:43.941Z,8.83
2018-10-16T14:03:11.585Z,6.40
2018-10-16T14:05:39.381Z,9.43
2018-10-16T14:08:07.117Z,6.67
2018-10-16T14:10:34.692Z,6.03
2018-10-16T14:13:02.442Z,6.13
2018-10-16T14:15:30.121Z,5.63
2018-10-16T14:17:57.849Z,6.50
2018-10-16T14:20:25.644Z,7.10
2018-10-16T14:22:53.322Z,7.47
2018-10-16T14:25:21.109Z,6.67
2018-10-16T14:27:48.801Z,6.37
2018-10-16T14:30:16.510Z,6.47
2018-10-16T14:32:44.360Z,5.90
2018-10-16T14:35:12.702Z,6.77
2018-10-16T14:37:40.561Z,6.30
2018-10-16T14:40:11.024Z,8.97
2018-10-16T14:42:38.876Z,6.80
2018-10-16T14:45:07.997Z,6.20
2018-10-16T14:47:35.692Z,6.57
2018-10-16T14:50:03.740Z,6.60
2018-10-16T14:52:31.353Z,5.53
2018-10-16T14:54:59.188Z,5.90
2018-10-16T14:57:27.001Z,5.77
2018-10-16T14:59:54.612Z,6.10
2018-10-16T15:02:22.333Z,6.83
2018-10-16T15:04:50.060Z,5.90
2018-10-16T15:07:17.977Z,6.63
2018-10-16T15:09:45.679Z,6.07
2018-10-16T15:12:13.397Z,5.63
2018-10-16T15:14:41.229Z,5.40
2018-10-16T15:17:08.983Z,7.03
2018-10-16T15:19:36.724Z,4.60
2018-10-16T15:22:13.329Z,5.23
2018-10-16T15:24:41.305Z,7.90
2018-10-16T15:27:09.006Z,9.47
2018-10-16T15:29:36.728Z,6.13
2018-10-16T15:32:04.589Z,5.57
2018-10-16T15:34:32.341Z,5.27
2018-10-16T15:37:00.113Z,5.57
2018-10-16T15:39:27.907Z,8.03
2018-10-16T15:41:55.656Z,4.90
2018-10-16T15:44:23.314Z,5.77
2018-10-16T15:46:51.022Z,5.70
2018-10-16T15:49:18.809Z,6.07
2018-10-16T15:51:46.552Z,7.83
2018-10-16T15:54:14.283Z,7.50
2018-10-16T15:56:41.981Z,7.67
2018-10-16T15:59:09.738Z,8.17
2018-10-16T16:01:37.512Z,7.83
2018-10-16T16:04:05.271Z,6.10
2018-10-16T16:06:32.894Z,7.27
2018-10-16T16:09:04.844Z,6.07
2018-10-16T16:11:32.557Z,8.73
2018-10-16T16:14:00.358Z,7.73
2018-10-16T16:16:28.032Z,8.03
2018-10-16T16:18:55.693Z,8.93
2018-10-16T16:21:23.409Z,6.93
2018-10-16T16:23:51.140Z,12.60
2018-10-16T16:26:18.876Z,8.40
2018-10-16T16:28:46.403Z,10.20
2018-10-16T16:31:14.172Z,6.87
2018-10-16T16:33:51.014Z,9.33
2018-10-16T16:36:18.857Z,7.03
2018-10-16T16:38:46.641Z,11.13
2018-10-16T16:41:14.394Z,8.67
2018-10-16T16:43:42.136Z,9.07
2018-10-16T16:46:10.065Z,7.13
2018-10-16T16:48:37.726Z,9.80
2018-10-16T16:51:05.704Z,8.90
2018-10-16T16:53:33.310Z,10.40
2018-10-16T16:56:01.144Z,7.60
2018-10-16T16:58:28.840Z,8.43
2018-10-16T17:00:56.557Z,11.13
2018-10-16T17:03:24.308Z,8.03
2018-10-16T17:05:52.057Z,11.00
2018-10-16T17:08:19.865Z,8.77
2018-10-16T17:10:47.649Z,9.93
2018-10-16T17:13:15.673Z,8.20
2018-10-16T17:15:43.469Z,6.43
2018-10-16T17:18:11.255Z,9.87
2018-10-16T17:20:39.060Z,8.47
2018-10-16T17:23:06.805Z,8.13
2018-10-16T17:25:34.870Z,8.67
2018-10-16T17:28:02.298Z,9.47
2018-10-16T17:30:29.981Z,8.17
2018-10-16T17:32:57.678Z,9.23
2018-10-16T17:35:25.402Z,10.37
2018-10-16T17:37:53.418Z,7.87
2018-10-16T17:40:21.101Z,9.07
2018-10-16T17:42:48.788Z,11.53
2018-10-16T17:45:16.829Z,14.93
2018-10-16T17:47:44.927Z,8.60
2018-10-16T17:50:15.693Z,7.57
2018-10-16T17:52:43.444Z,11.50
2018-10-16T17:55:11.989Z,10.70
2018-10-16T17:57:40.651Z,9.33
2018-10-16T18:00:13.560Z,8.50
2018-10-16T18:02:41.942Z,8.07
2018-10-16T18:05:10.953Z,14.10
2018-10-16T18:07:39.725Z,7.93
2018-10-16T18:10:07.933Z,7.63
2018-10-16T18:12:35.729Z,6.87
2018-10-16T18:15:04.116Z,10.47
2018-10-16T18:17:32.509Z,7.17
2018-10-16T18:20:01.276Z,8.43
2018-10-16T18:22:30.055Z,8.50
2018-10-16T18:24:57.821Z,8.30
2018-10-16T18:27:25.501Z,9.03
2018-10-16T18:29:53.294Z,7.83
2018-10-16T18:32:21.878Z,9.53
2018-10-16T18:34:49.638Z,8.87
2018-10-16T18:37:17.281Z,9.33
2018-10-16T18:39:45.255Z,8.37
2018-10-16T18:42:13.401Z,10.03
2018-10-16T18:44:41.789Z,10.27
2018-10-16T18:47:09.561Z,11.80
2018-10-16T18:49:37.325Z,6.90
2018-10-16T18:52:05.077Z,8.07
2018-10-16T18:54:33.798Z,6.90
2018-10-16T18:57:02.297Z,7.23
2018-10-16T18:59:29.949Z,9.63
2018-10-16T19:01:57.681Z,9.43
2018-10-16T19:04:25.447Z,7.30
2018-10-16T19:06:53.740Z,7.47
2018-10-16T19:09:21.489Z,8.43
2018-10-16T19:11:49.149Z,8.63
2018-10-16T19:14:16.849Z,9.80
2018-10-16T19:16:44.766Z,14.33
2018-10-16T19:19:13.127Z,9.57
2018-10-16T19:21:40.921Z,9.37
2018-10-16T19:24:08.661Z,7.70
2018-10-16T19:26:36.460Z,11.17
2018-10-16T19:29:04.920Z,9.37
2018-10-16T19:31:32.736Z,8.10
2018-10-16T19:34:00.393Z,9.03
2018-10-16T19:36:28.163Z,12.07
2018-10-16T19:38:56.229Z,9.30
2018-10-16T19:41:23.884Z,11.37
2018-10-16T19:43:51.744Z,11.17
2018-10-16T19:46:19.905Z,10.00
2018-10-16T19:48:48.436Z,8.87
2018-10-16T19:51:16.962Z,8.33
2018-10-16T19:53:45.545Z,10.87
2018-10-16T19:56:17.528Z,8.53
2018-10-16T19:58:51.018Z,6.80
2018-10-16T20:01:25.068Z,9.57
2018-10-16T20:03:52.829Z,7.93
2018-10-16T20:06:26.763Z,9.67
2018-10-16T20:08:55.177Z,10.93
2018-10-16T20:11:26.714Z,10.53
2018-10-16T20:13:57.187Z,8.63
2018-10-16T20:16:25.939Z,6.23
2018-10-16T20:18:53.620Z,6.43
2018-10-16T20:21:26.795Z,9.33
2018-10-16T20:23:55.457Z,9.33
2018-10-16T20:26:25.945Z,9.40
2018-10-16T20:28:55.576Z,10.13
2018-10-16T20:31:24.006Z,11.27
2018-10-16T20:33:51.753Z,9.13
2018-10-16T20:36:21.440Z,8.40
2018-10-16T20:38:52.142Z,9.37
2018-10-16T20:41:21.155Z,11.73
2018-10-16T20:43:49.091Z,14.60
2018-10-16T20:46:16.893Z,12.77
2018-10-16T20:48:44.738Z,13.57
2018-10-16T20:51:12.469Z,11.83
2018-10-16T20:53:40.197Z,14.10
2018-10-16T20:56:07.865Z,11.97
2018-10-16T20:58:42.746Z,10.80
2018-10-16T21:01:21.678Z,10.30
2018-10-16T21:03:53.461Z,12.63
2018-10-16T21:06:21.457Z,10.47
2018-10-16T21:09:03.472Z,11.07
2018-10-16T21:11:31.341Z,11.97
2018-10-16T21:13:58.976Z,16.63
2018-10-16T21:16:26.696Z,14.33
2018-10-16T21:18:54.371Z,13.87
2018-10-16T21:21:22.046Z,13.30
2018-10-16T21:23:49.734Z,11.87
2018-10-16T21:26:17.521Z,13.40
2018-10-16T21:28:45.232Z,17.00
2018-10-16T21:31:15.860Z,15.37
2018-10-16T21:33:43.592Z,13.43
2018-10-16T21:36:11.293Z,14.87
2018-10-16T21:38:38.992Z,13.63
2018-10-16T21:41:06.816Z,15.83
2018-10-16T21:43:34.569Z,14.63
2018-10-16T21:46:02.242Z,18.70
2018-10-16T21:48:29.916Z,12.57
2018-10-16T21:50:57.641Z,18.73
2018-10-16T21:53:25.393Z,13.27
2018-10-16T21:55:53.044Z,16.93
2018-10-16T21:58:20.721Z,15.37
2018-10-16T22:00:54.303Z,12.57
2018-10-16T22:03:22.016Z,13.93
2018-10-16T22:05:49.684Z,14.80
2018-10-16T22:08:17.396Z,14.97
2018-10-16T22:10:45.068Z,15.13
2018-10-16T22:13:12.915Z,13.47
2018-10-16T22:15:40.520Z,16.53
2018-10-16T22:18:08.312Z,13.77
2018-10-16T22:20:36.028Z,17.73
2018-10-16T22:23:04.064Z,13.83
2018-10-16T22:25:31.690Z,18.37
2018-10-16T22:27:59.428Z,12.07
2018-10-16T22:30:27.146Z,15.90
2018-10-16T22:32:54.798Z,14.40
2018-10-16T22:35:22.472Z,14.53
2018-10-16T22:37:50.159Z,17.00
2018-10-16T22:40:17.827Z,11.03
2018-10-16T22:42:45.503Z,11.73
2018-10-16T22:45:13.140Z,13.73
2018-10-16T22:47:40.793Z,12.30
2018-10-16T22:50:10.890Z,17.50
2018-10-16T22:52:38.676Z,12.10
2018-10-16T22:55:07.112Z,9.13
2018-10-16T22:57:34.779Z,14.77
2018-10-16T23:00:02.559Z,17.47
2018-10-16T23:02:30.330Z,17.73
2018-10-16T23:04:58.070Z,20.70
2018-10-16T23:07:25.757Z,17.13
2018-10-16T23:09:53.444Z,16.40
2018-10-16T23:12:21.414Z,18.17
2018-10-16T23:14:49.140Z,17.60
2018-10-16T23:17:16.797Z,20.07
2018-10-16T23:19:48.123Z,17.50
2018-10-16T23:22:15.924Z,20.70
2018-10-16T23:24:43.676Z,18.83
2018-10-16T23:27:11.360Z,18.50
2018-10-16T23:29:39.004Z,16.67
2018-10-16T23:32:06.689Z,18.67
2018-10-16T23:34:34.419Z,23.20
2018-10-16T23:37:02.139Z,18.43
2018-10-16T23:39:29.708Z,21.10
2018-10-16T23:41:57.436Z,23.90
2018-10-16T23:44:25.201Z,18.23
2018-10-16T23:46:52.981Z,18.50
2018-10-16T23:49:20.600Z,19.80
2018-10-16T23:51:48.286Z,22.17
2018-10-16T23:54:15.928Z,19.83
2018-10-16T23:56:43.613Z,24.37
2018-10-16T23:59:11.473Z,20.87
